Time;durP1;ratioP1;P1;durP2;ratioP2;P2;SDS_P1;SDS_P2;PMS_P1;PMS_P2;Temp;Humidity;BMP_temperature;BMP_pressure;BME280_temperature;BME280_humidity;BME280_pressure;Samples;Min_cycle;Max_cycle;Signal;HPM_P1;HPM_P2
2023/05/29 00:02:26;;;;;;;6.93;3.67;;;;;;;;;;5079260;28;20231;-51
2023/05/29 00:04:53;;;;;;;6.13;4.18;;;;;;;;;;5077929;28;20255;-57
2023/05/29 00:07:20;;;;;;;7.15;3.65;;;;;;;;;;5086590;28;20256;-50
2023/05/29 00:09:46;;;;;;;7.70;3.55;;;;;;;;;;5086577;28;20248;-52
2023/05/29 00:12:13;;;;;;;7.88;3.60;;;;;;;;;;5078151;28;20270;-51
2023/05/29 00:14:40;;;;;;;5.03;3.78;;;;;;;;;;5083748;28;20246;-52
2023/05/29 00:17:09;;;;;;;8.48;3.83;;;;;;;;;;5083794;28;20258;-52
2023/05/29 00:19:35;;;;;;;7.22;4.18;;;;;;;;;;5087016;28;20960;-51
2023/05/29 00:22:02;;;;;;;7.50;4.03;;;;;;;;;;5085963;28;20238;-51
2023/05/29 00:24:28;;;;;;;9.13;3.03;;;;;;;;;;5089966;27;20230;-54
2023/05/29 00:26:55;;;;;;;4.07;3.13;;;;;;;;;;5087415;28;20242;-52
2023/05/29 00:29:22;;;;;;;7.00;3.60;;;;;;;;;;5089190;28;20815;-52
2023/05/29 00:31:48;;;;;;;5.65;3.15;;;;;;;;;;5085830;28;20321;-52
2023/05/29 00:34:16;;;;;;;4.85;3.63;;;;;;;;;;5085419;28;20231;-52
2023/05/29 00:36:43;;;;;;;5.75;3.17;;;;;;;;;;5087479;28;20239;-53
2023/05/29 00:39:10;;;;;;;6.63;3.55;;;;;;;;;;5086519;28;20237;-51
2023/05/29 00:41:37;;;;;;;6.28;3.42;;;;;;;;;;5083018;28;20230;-52
2023/05/29 00:44:03;;;;;;;5.07;3.60;;;;;;;;;;5076003;28;20234;-52
2023/05/29 00:46:30;;;;;;;5.70;3.70;;;;;;;;;;5082897;27;20251;-53
2023/05/29 00:48:57;;;;;;;4.80;3.85;;;;;;;;;;5085830;28;20322;-52
2023/05/29 00:51:26;;;;;;;7.13;3.63;;;;;;;;;;5084273;28;20275;-51
2023/05/29 00:53:53;;;;;;;6.80;3.47;;;;;;;;;;5082016;27;20234;-54
2023/05/29 00:56:21;;;;;;;4.47;3.20;;;;;;;;;;5081490;28;20658;-53
2023/05/29 00:58:48;;;;;;;11.98;3.92;;;;;;;;;;5091783;28;20226;-52
2023/05/29 01:01:15;;;;;;;4.20;3.78;;;;;;;;;;5085084;28;20234;-52
2023/05/29 01:03:42;;;;;;;5.88;3.47;;;;;;;;;;5076699;28;20298;-51
2023/05/29 01:06:10;;;;;;;4.93;3.25;;;;;;;;;;5084197;28;20318;-52
2023/05/29 01:08:38;;;;;;;4.00;3.28;;;;;;;;;;5082410;28;20230;-51
2023/05/29 01:11:08;;;;;;;6.50;4.03;;;;;;;;;;5084637;28;20227;-50
2023/05/29 01:13:36;;;;;;;5.30;3.60;;;;;;;;;;5079841;28;20242;-51
2023/05/29 01:16:08;;;;;;;5.13;3.15;;;;;;;;;;5086953;28;20234;-52
2023/05/29 01:18:41;;;;;;;7.57;4.30;;;;;;;;;;5083934;28;20330;-54
2023/05/29 01:21:11;;;;;;;6.60;4.28;;;;;;;;;;5082909;28;20231;-51
2023/05/29 01:24:02;;;;;;;4.53;3.53;;;;;;;;;;5085438;28;20242;-53
2023/05/29 01:26:51;;;;;;;5.57;3.42;;;;;;;;;;5083178;28;20223;-52
2023/05/29 01:29:20;;;;;;;7.97;4.03;;;;;;;;;;5079232;28;20227;-52
2023/05/29 01:31:47;;;;;;;8.27;4.18;;;;;;;;;;5084633;28;20246;-52
2023/05/29 01:34:14;;;;;;;7.30;4.25;;;;;;;;;;5082984;28;20238;-51
2023/05/29 01:36:41;;;;;;;6.38;4.22;;;;;;;;;;5084304;28;20903;-51
2023/05/29 01:39:09;;;;;;;5.05;4.07;;;;;;;;;;5089163;28;20222;-51
2023/05/29 01:41:36;;;;;;;5.07;3.72;;;;;;;;;;5083103;28;20230;-52
2023/05/29 01:44:03;;;;;;;9.02;4.85;;;;;;;;;;5083694;28;20241;-52
2023/05/29 01:46:31;;;;;;;9.30;4.35;;;;;;;;;;5082679;28;20728;-52
2023/05/29 01:48:58;;;;;;;5.15;4.53;;;;;;;;;;5089746;28;20753;-51
2023/05/29 01:51:25;;;;;;;7.43;4.32;;;;;;;;;;5082782;28;20249;-55
2023/05/29 01:53:52;;;;;;;4.43;3.88;;;;;;;;;;5091207;28;20230;-52
2023/05/29 01:56:19;;;;;;;6.93;4.57;;;;;;;;;;5087373;28;20807;-51
2023/05/29 01:58:46;;;;;;;7.15;4.97;;;;;;;;;;5081600;28;20231;-53
2023/05/29 02:01:13;;;;;;;6.75;3.85;;;;;;;;;;5076307;28;20549;-52
2023/05/29 02:03:41;;;;;;;5.93;3.75;;;;;;;;;;5082286;28;20758;-52
2023/05/29 02:06:08;;;;;;;5.68;3.92;;;;;;;;;;5089743;28;20305;-52
2023/05/29 02:08:35;;;;;;;5.63;4.25;;;;;;;;;;5083910;28;20234;-51
2023/05/29 02:11:01;;;;;;;6.80;3.60;;;;;;;;;;5084058;28;20293;-52
2023/05/29 02:13:28;;;;;;;7.03;4.03;;;;;;;;;;5082486;28;20227;-50
2023/05/29 02:15:55;;;;;;;7.13;4.45;;;;;;;;;;5078824;28;20312;-53
2023/05/29 02:18:22;;;;;;;5.90;4.30;;;;;;;;;;5079326;28;20250;-52
2023/05/29 02:20:50;;;;;;;7.38;4.28;;;;;;;;;;5084235;28;20604;-51
2023/05/29 02:23:16;;;;;;;8.40;3.95;;;;;;;;;;5084321;28;20238;-53
2023/05/29 02:25:43;;;;;;;7.85;4.10;;;;;;;;;;5084420;28;20759;-51
2023/05/29 02:28:10;;;;;;;5.35;3.70;;;;;;;;;;5083073;28;20245;-52
2023/05/29 02:30:36;;;;;;;6.28;4.05;;;;;;;;;;5081974;28;20317;-51
2023/05/29 02:33:03;;;;;;;4.97;3.63;;;;;;;;;;5078825;28;20262;-52
2023/05/29 02:35:29;;;;;;;5.53;3.92;;;;;;;;;;5080061;28;20627;-51
2023/05/29 02:37:58;;;;;;;5.07;4.30;;;;;;;;;;5083241;28;20304;-51
2023/05/29 02:40:24;;;;;;;6.13;4.07;;;;;;;;;;5082487;28;20608;-52
2023/05/29 02:42:51;;;;;;;6.45;3.88;;;;;;;;;;5079591;28;20242;-51
2023/05/29 02:45:19;;;;;;;6.32;4.32;;;;;;;;;;5081279;28;20237;-53
2023/05/29 02:47:48;;;;;;;4.82;3.67;;;;;;;;;;5081670;28;20829;-52
2023/05/29 02:50:15;;;;;;;10.75;4.43;;;;;;;;;;5082860;28;20601;-52
2023/05/29 02:52:42;;;;;;;8.13;3.97;;;;;;;;;;5081838;28;20682;-51
2023/05/29 02:55:10;;;;;;;5.05;3.72;;;;;;;;;;5082818;28;20233;-52
2023/05/29 02:57:37;;;;;;;7.55;4.50;;;;;;;;;;5079919;28;20256;-52
2023/05/29 03:00:06;;;;;;;6.38;3.17;;;;;;;;;;5066385;28;20231;-53
2023/05/29 03:02:33;;;;;;;6.97;4.20;;;;;;;;;;5079779;28;20241;-52
2023/05/29 03:05:00;;;;;;;7.35;3.47;;;;;;;;;;5072670;28;20292;-52
2023/05/29 03:07:27;;;;;;;6.07;4.18;;;;;;;;;;5081742;28;21019;-50
2023/05/29 03:09:56;;;;;;;3.80;3.42;;;;;;;;;;5081484;28;20244;-52
2023/05/29 03:12:25;;;;;;;7.18;3.83;;;;;;;;;;5067979;28;20238;-53
2023/05/29 03:14:51;;;;;;;5.95;4.35;;;;;;;;;;5079905;28;20226;-52
2023/05/29 03:17:18;;;;;;;6.90;3.78;;;;;;;;;;5082815;28;20230;-51
2023/05/29 03:19:45;;;;;;;7.18;4.00;;;;;;;;;;5077356;28;20235;-51
2023/05/29 03:22:11;;;;;;;4.65;3.58;;;;;;;;;;5079260;28;20226;-51
2023/05/29 03:24:38;;;;;;;7.57;3.80;;;;;;;;;;5083277;28;20234;-51
2023/05/29 03:27:05;;;;;;;7.68;4.60;;;;;;;;;;5080882;28;20230;-51
2023/05/29 03:29:33;;;;;;;8.68;4.47;;;;;;;;;;5090554;28;20237;-51
2023/05/29 03:32:00;;;;;;;6.80;4.82;;;;;;;;;;5076111;28;20257;-50
2023/05/29 03:34:27;;;;;;;7.05;4.43;;;;;;;;;;5074295;28;20238;-51
2023/05/29 03:36:54;;;;;;;6.00;4.80;;;;;;;;;;5084617;28;20222;-51
2023/05/29 03:39:21;;;;;;;6.55;3.92;;;;;;;;;;5077147;28;20313;-53
2023/05/29 03:41:47;;;;;;;5.70;3.60;;;;;;;;;;5083285;28;20238;-52
2023/05/29 03:44:14;;;;;;;4.30;3.88;;;;;;;;;;5084852;28;20875;-52
2023/05/29 03:46:42;;;;;;;4.50;3.40;;;;;;;;;;5091665;28;20238;-51
2023/05/29 03:49:09;;;;;;;6.97;3.90;;;;;;;;;;5090518;28;20665;-52
2023/05/29 03:51:36;;;;;;;3.88;3.33;;;;;;;;;;5085551;28;20226;-52
2023/05/29 03:54:03;;;;;;;7.97;3.92;;;;;;;;;;5084531;28;20827;-52
2023/05/29 03:56:30;;;;;;;6.55;3.78;;;;;;;;;;5085091;28;20310;-52
2023/05/29 03:58:56;;;;;;;4.40;4.00;;;;;;;;;;5081850;28;20223;-54
2023/05/29 04:01:23;;;;;;;6.72;3.80;;;;;;;;;;5086456;28;20234;-51
2023/05/29 04:03:51;;;;;;;6.40;3.92;;;;;;;;;;5083334;28;20740;-52
2023/05/29 04:06:17;;;;;;;9.80;4.40;;;;;;;;;;5079218;28;20237;-54
2023/05/29 04:08:44;;;;;;;7.50;4.03;;;;;;;;;;5077048;28;20246;-53
2023/05/29 04:11:11;;;;;;;6.13;4.13;;;;;;;;;;5086180;28;20234;-52
2023/05/29 04:13:38;;;;;;;5.07;3.63;;;;;;;;;;5084432;28;20269;-52
2023/05/29 04:16:05;;;;;;;6.70;4.00;;;;;;;;;;5085455;28;20226;-53
2023/05/29 04:18:32;;;;;;;5.57;3.95;;;;;;;;;;5083954;28;20233;-51
2023/05/29 04:21:00;;;;;;;6.22;3.50;;;;;;;;;;5086057;28;20683;-53
2023/05/29 04:23:27;;;;;;;4.82;3.78;;;;;;;;;;5089635;27;20292;-53
2023/05/29 04:25:53;;;;;;;4.85;3.60;;;;;;;;;;5086195;28;20231;-52
2023/05/29 04:28:21;;;;;;;4.78;3.65;;;;;;;;;;5077565;28;20234;-52
2023/05/29 04:30:48;;;;;;;7.05;3.90;;;;;;;;;;5083647;28;20802;-50
2023/05/29 04:33:15;;;;;;;7.97;4.35;;;;;;;;;;5081904;28;20359;-51
2023/05/29 04:35:42;;;;;;;6.50;3.70;;;;;;;;;;5084075;28;20247;-51
2023/05/29 04:38:11;;;;;;;6.32;3.83;;;;;;;;;;5078342;28;20337;-51
2023/05/29 04:40:37;;;;;;;6.22;3.83;;;;;;;;;;5083343;28;20223;-50
2023/05/29 04:43:05;;;;;;;5.80;3.85;;;;;;;;;;5083655;28;20712;-52
2023/05/29 04:45:31;;;;;;;4.78;3.25;;;;;;;;;;5082222;28;20234;-53
2023/05/29 04:47:58;;;;;;;6.10;4.13;;;;;;;;;;5084748;28;20504;-52
2023/05/29 04:50:25;;;;;;;5.30;3.45;;;;;;;;;;5078290;28;20238;-52
2023/05/29 04:52:52;;;;;;;7.45;3.88;;;;;;;;;;5083122;28;20250;-52
2023/05/29 04:55:20;;;;;;;6.35;3.67;;;;;;;;;;5082353;28;20379;-52
2023/05/29 04:57:47;;;;;;;6.68;4.18;;;;;;;;;;5083062;28;20246;-52
2023/05/29 05:00:14;;;;;;;8.18;3.90;;;;;;;;;;5080812;28;20323;-52
2023/05/29 05:02:42;;;;;;;5.85;3.72;;;;;;;;;;5080581;28;20243;-53
2023/05/29 05:05:09;;;;;;;4.22;3.58;;;;;;;;;;5084051;28;20227;-52
2023/05/29 05:07:36;;;;;;;5.28;3.15;;;;;;;;;;5084821;28;20253;-52
2023/05/29 05:10:02;;;;;;;5.07;3.20;;;;;;;;;;5083031;28;20253;-54
2023/05/29 05:12:30;;;;;;;5.70;3.55;;;;;;;;;;5084075;28;20791;-51
2023/05/29 05:14:57;;;;;;;4.30;2.97;;;;;;;;;;5084468;28;20246;-53
2023/05/29 05:17:24;;;;;;;4.68;3.28;;;;;;;;;;5084450;28;20708;-51
2023/05/29 05:19:52;;;;;;;4.15;3.33;;;;;;;;;;5082503;28;20283;-52
2023/05/29 05:22:18;;;;;;;3.60;2.65;;;;;;;;;;5083968;28;20265;-52
2023/05/29 05:24:45;;;;;;;4.53;2.90;;;;;;;;;;5083752;28;20309;-53
2023/05/29 05:27:12;;;;;;;3.63;2.88;;;;;;;;;;5040875;28;1376407;-50
2023/05/29 05:29:40;;;;;;;3.10;2.80;;;;;;;;;;5088540;28;20238;-53
2023/05/29 05:32:07;;;;;;;4.13;2.70;;;;;;;;;;5084828;28;20262;-51
2023/05/29 05:34:34;;;;;;;3.55;2.78;;;;;;;;;;5081452;28;20237;-51
2023/05/29 05:37:02;;;;;;;5.22;2.50;;;;;;;;;;5084375;28;20237;-52
2023/05/29 05:39:29;;;;;;;3.05;2.75;;;;;;;;;;5081412;28;20770;-51
2023/05/29 05:41:55;;;;;;;2.58;2.38;;;;;;;;;;5078827;28;20677;-52
2023/05/29 05:44:22;;;;;;;3.83;2.40;;;;;;;;;;5085658;28;20234;-50
2023/05/29 05:46:50;;;;;;;4.32;3.00;;;;;;;;;;5080420;28;20237;-51
2023/05/29 05:49:17;;;;;;;3.78;2.40;;;;;;;;;;5086169;28;20253;-51
2023/05/29 05:51:44;;;;;;;3.90;2.80;;;;;;;;;;5080468;28;20230;-53
2023/05/29 05:54:10;;;;;;;2.67;2.47;;;;;;;;;;5082439;28;20234;-51
2023/05/29 05:56:37;;;;;;;2.92;2.63;;;;;;;;;;5082183;28;20325;-52
2023/05/29 05:59:03;;;;;;;2.15;1.83;;;;;;;;;;5084156;28;20239;-52
2023/05/29 06:01:31;;;;;;;2.15;1.95;;;;;;;;;;5081802;28;20242;-52
2023/05/29 06:03:59;;;;;;;3.40;2.00;;;;;;;;;;5085164;28;20237;-53
2023/05/29 06:06:26;;;;;;;2.63;2.30;;;;;;;;;;5078195;28;20704;-51
2023/05/29 06:08:52;;;;;;;2.47;2.22;;;;;;;;;;5084017;28;20260;-52
2023/05/29 06:11:19;;;;;;;3.03;2.50;;;;;;;;;;5084254;27;20289;-51
2023/05/29 06:13:46;;;;;;;3.75;2.55;;;;;;;;;;5083310;28;20238;-51
2023/05/29 06:16:13;;;;;;;2.92;2.13;;;;;;;;;;5082939;28;20238;-51
2023/05/29 06:18:39;;;;;;;2.20;2.00;;;;;;;;;;5082455;28;20260;-54
2023/05/29 06:21:09;;;;;;;3.45;2.15;;;;;;;;;;5086175;28;20321;-52
2023/05/29 06:23:36;;;;;;;7.18;2.42;;;;;;;;;;5082486;28;20338;-51
2023/05/29 06:26:03;;;;;;;3.17;2.20;;;;;;;;;;5081361;28;20317;-52
2023/05/29 06:28:29;;;;;;;2.65;2.22;;;;;;;;;;5084875;28;20236;-51
2023/05/29 06:30:56;;;;;;;4.20;2.42;;;;;;;;;;5081516;28;20235;-53
2023/05/29 06:33:24;;;;;;;2.17;1.98;;;;;;;;;;5081879;28;20235;-52
2023/05/29 06:35:50;;;;;;;2.72;2.33;;;;;;;;;;5084085;28;20288;-51
2023/05/29 06:38:18;;;;;;;4.10;2.10;;;;;;;;;;5083983;28;20339;-53
2023/05/29 06:40:45;;;;;;;4.05;2.00;;;;;;;;;;5081484;28;20222;-51
2023/05/29 06:43:12;;;;;;;2.53;2.10;;;;;;;;;;5083014;28;20728;-52
2023/05/29 06:45:39;;;;;;;4.05;2.20;;;;;;;;;;5079199;28;20237;-53
2023/05/29 06:48:05;;;;;;;1.92;1.83;;;;;;;;;;5083207;28;20826;-51
2023/05/29 06:50:33;;;;;;;4.32;2.22;;;;;;;;;;5085917;28;20703;-52
2023/05/29 06:53:00;;;;;;;2.35;2.00;;;;;;;;;;5080841;28;20659;-52
2023/05/29 06:55:28;;;;;;;2.85;2.25;;;;;;;;;;5084142;28;20234;-53
2023/05/29 06:57:54;;;;;;;2.20;2.00;;;;;;;;;;5082765;28;20712;-52
2023/05/29 07:00:21;;;;;;;3.40;2.70;;;;;;;;;;5082764;28;20248;-51
2023/05/29 07:02:48;;;;;;;2.95;2.10;;;;;;;;;;5080521;28;20334;-52
2023/05/29 07:05:15;;;;;;;2.63;1.95;;;;;;;;;;5084457;28;20325;-52
2023/05/29 07:07:41;;;;;;;3.17;2.10;;;;;;;;;;5074334;28;20238;-52
2023/05/29 07:10:08;;;;;;;2.15;1.90;;;;;;;;;;5080571;28;20233;-54
2023/05/29 07:12:36;;;;;;;3.25;1.98;;;;;;;;;;5084441;28;20246;-52
2023/05/29 07:15:03;;;;;;;4.28;2.20;;;;;;;;;;5081161;28;20230;-51
2023/05/29 07:17:29;;;;;;;2.55;2.05;;;;;;;;;;5080889;28;21207;-51
2023/05/29 07:19:56;;;;;;;5.47;2.17;;;;;;;;;;5075565;28;20257;-51
2023/05/29 07:22:23;;;;;;;2.22;1.85;;;;;;;;;;5080271;28;20238;-52
2023/05/29 07:24:49;;;;;;;1.92;1.80;;;;;;;;;;5082327;28;20229;-51
2023/05/29 07:27:16;;;;;;;2.63;1.92;;;;;;;;;;5081469;28;20301;-52
2023/05/29 07:29:44;;;;;;;4.57;2.85;;;;;;;;;;5082603;28;20319;-50
2023/05/29 07:32:11;;;;;;;2.90;2.03;;;;;;;;;;5078534;28;20230;-53
2023/05/29 07:34:38;;;;;;;3.47;2.78;;;;;;;;;;5086194;28;20268;-52
2023/05/29 07:37:05;;;;;;;3.15;1.95;;;;;;;;;;5076953;28;20669;-54
2023/05/29 07:39:32;;;;;;;2.65;2.00;;;;;;;;;;5080917;28;20230;-52
2023/05/29 07:41:58;;;;;;;4.88;1.80;;;;;;;;;;5082075;28;20325;-53
2023/05/29 07:44:26;;;;;;;3.10;2.28;;;;;;;;;;5083766;28;20241;-51
2023/05/29 07:46:54;;;;;;;1.92;1.52;;;;;;;;;;5086519;28;20233;-51
2023/05/29 07:49:21;;;;;;;3.38;2.08;;;;;;;;;;5077839;28;20349;-52
2023/05/29 07:51:48;;;;;;;3.25;2.38;;;;;;;;;;5078313;28;20256;-53
2023/05/29 07:54:17;;;;;;;3.20;1.88;;;;;;;;;;5086802;28;20223;-54
2023/05/29 07:56:45;;;;;;;2.90;2.15;;;;;;;;;;5080792;28;20235;-53
2023/05/29 07:59:12;;;;;;;3.40;2.10;;;;;;;;;;5079840;28;20766;-51
2023/05/29 08:01:39;;;;;;;2.10;1.90;;;;;;;;;;5078804;28;20226;-54
2023/05/29 08:04:07;;;;;;;2.72;2.53;;;;;;;;;;5081476;28;20740;-52
2023/05/29 08:06:34;;;;;;;2.83;1.98;;;;;;;;;;5082292;28;20246;-52
2023/05/29 08:09:01;;;;;;;6.80;2.20;;;;;;;;;;5082451;28;20238;-53
2023/05/29 08:11:28;;;;;;;1.92;1.83;;;;;;;;;;5082094;28;20231;-52
2023/05/29 08:13:54;;;;;;;3.55;1.90;;;;;;;;;;5081918;28;20271;-52
2023/05/29 08:16:22;;;;;;;1.98;1.48;;;;;;;;;;5082279;28;20431;-54
2023/05/29 08:18:48;;;;;;;2.35;1.77;;;;;;;;;;5082774;28;20322;-52
2023/05/29 08:21:16;;;;;;;3.40;2.20;;;;;;;;;;5084494;28;20315;-51
2023/05/29 08:23:43;;;;;;;2.33;2.05;;;;;;;;;;5089756;28;20231;-51
2023/05/29 08:26:10;;;;;;;3.47;1.83;;;;;;;;;;5087182;28;20229;-53
2023/05/29 08:28:36;;;;;;;3.17;1.77;;;;;;;;;;5085747;28;20247;-51
2023/05/29 08:31:03;;;;;;;3.15;2.00;;;;;;;;;;5080027;28;20234;-53
2023/05/29 08:33:30;;;;;;;2.65;2.13;;;;;;;;;;5082311;28;20230;-53
2023/05/29 08:35:58;;;;;;;3.80;2.58;;;;;;;;;;5082574;28;20236;-52
2023/05/29 08:38:26;;;;;;;3.15;2.33;;;;;;;;;;5074625;28;20231;-52
2023/05/29 08:40:53;;;;;;;3.70;2.00;;;;;;;;;;5073727;28;20269;-53
2023/05/29 08:43:22;;;;;;;2.25;2.05;;;;;;;;;;5075023;28;20238;-53
2023/05/29 08:45:52;;;;;;;3.05;2.13;;;;;;;;;;5086213;28;20222;-55
2023/05/29 08:48:19;;;;;;;4.13;2.53;;;;;;;;;;5087347;28;20306;-51
2023/05/29 08:50:46;;;;;;;3.97;1.95;;;;;;;;;;5086401;28;20237;-51
2023/05/29 08:53:13;;;;;;;2.88;1.77;;;;;;;;;;5078913;28;20233;-51
2023/05/29 08:55:42;;;;;;;4.72;2.40;;;;;;;;;;5082008;28;20910;-53
2023/05/29 08:58:09;;;;;;;2.30;2.10;;;;;;;;;;5080933;28;20284;-51
2023/05/29 09:00:36;;;;;;;2.67;2.03;;;;;;;;;;5088161;28;20241;-50
2023/05/29 09:03:03;;;;;;;2.42;2.22;;;;;;;;;;5081248;28;20246;-51
2023/05/29 09:05:30;;;;;;;2.42;2.08;;;;;;;;;;5085350;28;20227;-50
2023/05/29 09:07:56;;;;;;;4.35;2.33;;;;;;;;;;5085987;28;20734;-51
2023/05/29 09:10:25;;;;;;;2.78;2.05;;;;;;;;;;5087065;28;20317;-52
2023/05/29 09:12:53;;;;;;;2.30;2.10;;;;;;;;;;5081086;28;20242;-51
2023/05/29 09:15:20;;;;;;;4.25;2.20;;;;;;;;;;5073855;28;20230;-51
2023/05/29 09:17:50;;;;;;;2.63;2.33;;;;;;;;;;5086534;28;20325;-51
2023/05/29 09:20:17;;;;;;;3.50;2.38;;;;;;;;;;5081678;28;20765;-51
2023/05/29 09:22:47;;;;;;;2.83;2.53;;;;;;;;;;5085912;28;20333;-52
2023/05/29 09:25:14;;;;;;;4.82;2.45;;;;;;;;;;5083767;28;20223;-51
2023/05/29 09:27:41;;;;;;;2.75;2.42;;;;;;;;;;5092706;28;20237;-51
2023/05/29 09:30:10;;;;;;;2.75;2.20;;;;;;;;;;5087098;28;20234;-50
2023/05/29 09:32:37;;;;;;;3.22;2.28;;;;;;;;;;5081786;28;20318;-50
2023/05/29 09:35:04;;;;;;;3.53;2.58;;;;;;;;;;5097604;27;20238;-51
2023/05/29 09:37:32;;;;;;;2.92;2.70;;;;;;;;;;5085275;28;20256;-53
2023/05/29 09:39:59;;;;;;;3.92;2.67;;;;;;;;;;5082271;28;20330;-51
2023/05/29 09:42:25;;;;;;;8.00;2.60;;;;;;;;;;5073813;28;20226;-52
2023/05/29 09:44:53;;;;;;;5.22;2.75;;;;;;;;;;5078250;28;20240;-52
2023/05/29 09:47:22;;;;;;;2.30;2.10;;;;;;;;;;5083187;28;26107;-52
2023/05/29 09:49:49;;;;;;;3.28;2.53;;;;;;;;;;5079988;28;20716;-55
2023/05/29 09:52:16;;;;;;;2.90;2.58;;;;;;;;;;5084393;28;20295;-51
2023/05/29 09:54:45;;;;;;;2.42;2.03;;;;;;;;;;5088458;28;20242;-51
2023/05/29 09:57:12;;;;;;;4.80;2.83;;;;;;;;;;5068038;28;20609;-52
2023/05/29 09:59:38;;;;;;;2.88;2.67;;;;;;;;;;5080469;28;20243;-53
2023/05/29 10:02:07;;;;;;;5.82;2.90;;;;;;;;;;5085867;28;20234;-52
2023/05/29 10:04:35;;;;;;;3.65;2.50;;;;;;;;;;5087287;28;20239;-52
2023/05/29 10:07:06;;;;;;;3.42;2.72;;;;;;;;;;5091621;27;20233;-51
2023/05/29 10:09:34;;;;;;;5.15;3.05;;;;;;;;;;5092114;28;20608;-53
2023/05/29 10:12:02;;;;;;;5.07;2.28;;;;;;;;;;5089524;28;20238;-52
2023/05/29 10:14:31;;;;;;;5.22;2.53;;;;;;;;;;5082090;28;20237;-50
2023/05/29 10:16:59;;;;;;;4.38;2.90;;;;;;;;;;5072463;28;20231;-51
2023/05/29 10:19:26;;;;;;;4.50;2.58;;;;;;;;;;5085500;28;20801;-53
2023/05/29 10:21:55;;;;;;;2.95;2.58;;;;;;;;;;5082689;28;20272;-52
2023/05/29 10:24:22;;;;;;;3.33;2.53;;;;;;;;;;5087558;28;20239;-52
2023/05/29 10:26:50;;;;;;;4.18;2.33;;;;;;;;;;5089920;28;20237;-52
2023/05/29 10:29:18;;;;;;;3.37;2.10;;;;;;;;;;5087477;28;20275;-53
2023/05/29 10:31:51;;;;;;;3.00;2.60;;;;;;;;;;5087274;28;20238;-53
2023/05/29 10:34:23;;;;;;;5.60;2.35;;;;;;;;;;5083164;28;20295;-52
2023/05/29 10:36:55;;;;;;;2.45;2.20;;;;;;;;;;5084351;28;20230;-50
2023/05/29 10:39:23;;;;;;;2.67;2.38;;;;;;;;;;5081869;28;20719;-51
2023/05/29 10:41:50;;;;;;;2.45;2.25;;;;;;;;;;5085922;28;20234;-51
2023/05/29 10:44:35;;;;;;;3.35;2.35;;;;;;;;;;5081132;28;20832;-51
2023/05/29 10:47:08;;;;;;;3.10;2.28;;;;;;;;;;5084783;28;20231;-50
2023/05/29 10:49:35;;;;;;;3.35;2.30;;;;;;;;;;5085208;28;20241;-50
2023/05/29 10:52:03;;;;;;;2.55;2.35;;;;;;;;;;5084581;28;20230;-52
2023/05/29 10:54:41;;;;;;;6.65;3.10;;;;;;;;;;5075048;28;20262;-52
2023/05/29 10:57:09;;;;;;;3.40;2.25;;;;;;;;;;5075658;28;20234;-53
2023/05/29 10:59:36;;;;;;;2.40;2.20;;;;;;;;;;5079273;28;20237;-54
2023/05/29 11:02:04;;;;;;;2.40;2.20;;;;;;;;;;5076909;28;20238;-50
2023/05/29 11:04:33;;;;;;;5.70;3.10;;;;;;;;;;5083049;28;20431;-54
2023/05/29 11:07:03;;;;;;;3.80;3.00;;;;;;;;;;5082969;28;20241;-52
2023/05/29 11:09:34;;;;;;;2.78;2.45;;;;;;;;;;5081596;27;20242;-54
2023/05/29 11:12:14;;;;;;;2.13;1.92;;;;;;;;;;5077853;28;20241;-54
2023/05/29 11:14:45;;;;;;;4.60;2.13;;;;;;;;;;5073991;28;20287;-51
2023/05/29 11:17:29;;;;;;;2.42;2.22;;;;;;;;;;5079416;28;20256;-52
2023/05/29 11:19:56;;;;;;;2.03;1.90;;;;;;;;;;5079291;28;20230;-51
2023/05/29 11:22:28;;;;;;;3.05;2.35;;;;;;;;;;5084761;28;20744;-53
2023/05/29 11:24:57;;;;;;;4.85;2.53;;;;;;;;;;5080403;28;20233;-50
2023/05/29 11:27:24;;;;;;;5.32;2.80;;;;;;;;;;5080498;28;20226;-52
2023/05/29 11:29:53;;;;;;;4.18;2.70;;;;;;;;;;5079428;28;20230;-53
2023/05/29 11:32:20;;;;;;;3.33;2.75;;;;;;;;;;5080145;28;20257;-51
2023/05/29 11:34:47;;;;;;;3.15;2.65;;;;;;;;;;5073581;28;20234;-53
2023/05/29 11:37:15;;;;;;;3.75;3.33;;;;;;;;;;5073599;28;20237;-52
2023/05/29 11:39:42;;;;;;;4.10;2.58;;;;;;;;;;5072545;28;20235;-52
2023/05/29 11:42:10;;;;;;;3.80;3.13;;;;;;;;;;5071058;28;20239;-51
2023/05/29 11:44:37;;;;;;;4.60;3.80;;;;;;;;;;5080322;28;20234;-52
2023/05/29 11:47:04;;;;;;;6.93;3.65;;;;;;;;;;5082351;28;20241;-52
2023/05/29 11:49:32;;;;;;;3.72;2.88;;;;;;;;;;5083206;28;20230;-51
2023/05/29 11:52:06;;;;;;;5.22;2.83;;;;;;;;;;5081470;28;20237;-53
2023/05/29 11:54:33;;;;;;;4.93;3.63;;;;;;;;;;5087230;28;20230;-52
2023/05/29 11:57:01;;;;;;;4.88;4.28;;;;;;;;;;5082192;27;20317;-52
2023/05/29 11:59:30;;;;;;;9.07;3.35;;;;;;;;;;5084248;28;20256;-53
2023/05/29 12:01:57;;;;;;;2.55;2.22;;;;;;;;;;5084682;28;20230;-53
2023/05/29 12:04:24;;;;;;;3.38;3.00;;;;;;;;;;5085901;28;20310;-53
2023/05/29 12:06:50;;;;;;;3.58;2.92;;;;;;;;;;5087064;28;20230;-51
2023/05/29 12:09:27;;;;;;;4.07;2.70;;;;;;;;;;5086478;28;20383;-52
2023/05/29 12:11:54;;;;;;;3.50;2.10;;;;;;;;;;5083095;28;20265;-52
2023/05/29 12:14:21;;;;;;;4.20;3.50;;;;;;;;;;5087405;27;20241;-52
2023/05/29 12:16:49;;;;;;;12.30;5.05;;;;;;;;;;5090764;28;20241;-52
2023/05/29 12:19:16;;;;;;;5.68;5.00;;;;;;;;;;5089501;28;20279;-52
2023/05/29 12:21:43;;;;;;;3.92;3.40;;;;;;;;;;5084812;28;20227;-51
2023/05/29 12:24:10;;;;;;;6.85;4.13;;;;;;;;;;5086252;28;20226;-52
2023/05/29 12:26:36;;;;;;;10.32;9.20;;;;;;;;;;5085189;28;20238;-53
2023/05/29 12:29:04;;;;;;;7.50;6.10;;;;;;;;;;5077280;28;20287;-51
2023/05/29 12:31:31;;;;;;;4.65;2.55;;;;;;;;;;5076731;28;20277;-53
2023/05/29 12:34:03;;;;;;;3.08;2.67;;;;;;;;;;5077874;28;20219;-53
2023/05/29 12:36:30;;;;;;;4.45;2.50;;;;;;;;;;5084585;28;20227;-51
2023/05/29 12:38:58;;;;;;;3.78;2.65;;;;;;;;;;5082933;28;20238;-51
2023/05/29 12:41:28;;;;;;;3.95;2.80;;;;;;;;;;5079491;28;20303;-52
2023/05/29 12:43:56;;;;;;;4.60;3.58;;;;;;;;;;5079607;28;20281;-51
2023/05/29 12:46:23;;;;;;;3.30;2.50;;;;;;;;;;5078430;28;20716;-52
2023/05/29 12:48:50;;;;;;;4.53;2.90;;;;;;;;;;5080079;28;20807;-52
2023/05/29 12:51:23;;;;;;;4.95;4.22;;;;;;;;;;5082804;28;20241;-53
2023/05/29 12:53:50;;;;;;;7.45;5.43;;;;;;;;;;5080220;28;20333;-52
2023/05/29 12:56:16;;;;;;;6.07;4.57;;;;;;;;;;5077074;28;20255;-51
2023/05/29 12:58:43;;;;;;;5.63;3.42;;;;;;;;;;5079356;28;20234;-50
2023/05/29 13:01:13;;;;;;;4.38;3.15;;;;;;;;;;5080182;28;20231;-52
2023/05/29 13:03:40;;;;;;;9.77;5.65;;;;;;;;;;5075458;28;20326;-52
2023/05/29 13:06:07;;;;;;;5.32;4.60;;;;;;;;;;5072989;28;20879;-51
2023/05/29 13:08:35;;;;;;;7.22;5.28;;;;;;;;;;5081382;28;20242;-52
2023/05/29 13:11:02;;;;;;;7.05;4.35;;;;;;;;;;5077162;28;20241;-52
2023/05/29 13:13:29;;;;;;;3.70;2.97;;;;;;;;;;5077267;28;20931;-52
2023/05/29 13:15:55;;;;;;;3.45;2.58;;;;;;;;;;5081759;28;20234;-52
2023/05/29 13:18:22;;;;;;;7.78;5.00;;;;;;;;;;5080090;28;20234;-52
2023/05/29 13:20:49;;;;;;;3.33;2.45;;;;;;;;;;5082647;28;20358;-51
2023/05/29 13:23:15;;;;;;;5.43;2.42;;;;;;;;;;5075913;28;20713;-54
2023/05/29 13:25:43;;;;;;;4.93;3.80;;;;;;;;;;5081734;28;20250;-51
2023/05/29 13:28:10;;;;;;;2.97;2.78;;;;;;;;;;5079449;28;20500;-51
2023/05/29 13:30:37;;;;;;;4.25;3.40;;;;;;;;;;5079000;28;20239;-51
2023/05/29 13:33:03;;;;;;;4.07;2.88;;;;;;;;;;5074315;28;20233;-52
2023/05/29 13:35:30;;;;;;;5.10;3.90;;;;;;;;;;5083867;28;20291;-52
2023/05/29 13:37:57;;;;;;;7.57;5.07;;;;;;;;;;5083522;27;21289;-60
2023/05/29 13:40:24;;;;;;;6.00;4.35;;;;;;;;;;5084911;28;20625;-53
2023/05/29 13:42:52;;;;;;;4.50;3.28;;;;;;;;;;5084013;28;21068;-52
2023/05/29 13:45:18;;;;;;;3.78;3.30;;;;;;;;;;5081797;28;20254;-59
2023/05/29 13:47:45;;;;;;;4.25;3.05;;;;;;;;;;5085082;28;20234;-54
2023/05/29 13:50:12;;;;;;;7.15;4.60;;;;;;;;;;5080969;28;20229;-52
2023/05/29 13:52:38;;;;;;;6.95;4.75;;;;;;;;;;5077641;28;20239;-51
2023/05/29 13:55:08;;;;;;;5.18;2.83;;;;;;;;;;5080574;28;20237;-52
2023/05/29 13:57:34;;;;;;;2.90;2.28;;;;;;;;;;5082803;28;20231;-52
2023/05/29 14:00:02;;;;;;;5.22;2.95;;;;;;;;;;5080815;28;20245;-51
2023/05/29 14:02:29;;;;;;;3.47;2.33;;;;;;;;;;5078798;28;20234;-51
2023/05/29 14:04:56;;;;;;;5.00;2.33;;;;;;;;;;5075730;28;20756;-52
2023/05/29 14:07:22;;;;;;;12.45;4.82;;;;;;;;;;5085658;28;20237;-53
2023/05/29 14:09:49;;;;;;;6.10;4.30;;;;;;;;;;5080164;28;20223;-53
2023/05/29 14:12:16;;;;;;;4.15;2.83;;;;;;;;;;5078553;28;20240;-55
2023/05/29 14:14:42;;;;;;;5.60;3.13;;;;;;;;;;5084005;28;20249;-52
2023/05/29 14:17:12;;;;;;;3.58;3.15;;;;;;;;;;5082982;28;20313;-54
2023/05/29 14:19:38;;;;;;;4.47;2.80;;;;;;;;;;5084472;28;20235;-52
2023/05/29 14:22:05;;;;;;;5.70;2.20;;;;;;;;;;5081387;28;20227;-53
2023/05/29 14:24:32;;;;;;;2.78;2.50;;;;;;;;;;5082718;28;20233;-52
2023/05/29 14:26:58;;;;;;;3.40;2.53;;;;;;;;;;5083084;28;20269;-51
2023/05/29 14:29:26;;;;;;;6.75;2.67;;;;;;;;;;5083270;28;20230;-52
2023/05/29 14:31:52;;;;;;;5.25;2.75;;;;;;;;;;5083525;28;20246;-52
2023/05/29 14:34:21;;;;;;;4.88;2.63;;;;;;;;;;5085474;28;20230;-54
2023/05/29 14:36:48;;;;;;;4.07;2.85;;;;;;;;;;5079177;28;20734;-53
2023/05/29 14:39:14;;;;;;;4.65;3.03;;;;;;;;;;5076861;27;20218;-52
2023/05/29 14:41:41;;;;;;;2.88;1.77;;;;;;;;;;5081919;28;20552;-50
2023/05/29 14:44:08;;;;;;;3.00;2.10;;;;;;;;;;5081973;28;20226;-53
2023/05/29 14:46:35;;;;;;;3.78;2.28;;;;;;;;;;5083326;28;20234;-51